createdAt,value
2023-03-01T00:02:59.871Z,84.27
2023-03-01T00:08:02.411Z,85.63
2023-03-01T00:13:06.255Z,82.87
2023-03-01T00:18:09.829Z,73.60
2023-03-01T00:23:12.493Z,83.53
2023-03-01T00:28:15.287Z,83.17
2023-03-01T00:33:17.926Z,84.87
2023-03-01T00:38:20.463Z,76.83
2023-03-01T00:43:23.172Z,78.70
2023-03-01T00:48:25.645Z,86.23
2023-03-01T00:53:28.159Z,87.53
2023-03-01T00:58:31.201Z,86.53
2023-03-01T01:03:33.979Z,86.10
2023-03-01T01:08:36.570Z,74.40
2023-03-01T01:13:40.456Z,73.00
2023-03-01T01:18:43.638Z,85.87
2023-03-01T01:23:47.156Z,88.23
2023-03-01T01:28:50.095Z,91.10
2023-03-01T01:33:53.594Z,87.53
2023-03-01T01:38:56.474Z,84.50
2023-03-01T01:44:17.086Z,85.70
2023-03-01T01:49:38.002Z,84.97
2023-03-01T01:54:58.557Z,79.30
2023-03-01T02:00:04.429Z,85.37
2023-03-01T02:05:33.563Z,86.80
2023-03-01T02:10:36.529Z,89.07
2023-03-01T02:15:41.437Z,90.10
2023-03-01T02:20:58.977Z,84.10
2023-03-01T02:26:29.403Z,99.97
2023-03-01T02:31:44.272Z,105.43
2023-03-01T02:36:54.393Z,94.60
2023-03-01T02:42:00.014Z,111.00
2023-03-01T02:47:05.179Z,97.47
2023-03-01T02:52:41.165Z,91.80
2023-03-01T02:57:51.758Z,93.50
2023-03-01T03:02:57.870Z,95.57
2023-03-01T03:08:03.026Z,87.90
2023-03-01T03:13:12.878Z,93.27
2023-03-01T03:18:17.686Z,92.20
2023-03-01T03:23:27.101Z,94.40
2023-03-01T03:28:29.902Z,89.63
2023-03-01T03:33:32.597Z,85.40
2023-03-01T03:38:35.042Z,92.77
2023-03-01T03:43:39.919Z,91.80
2023-03-01T03:48:45.146Z,89.70
2023-03-01T03:53:47.708Z,84.27
2023-03-01T03:58:50.348Z,89.47
2023-03-01T04:03:55.559Z,82.70
2023-03-01T04:09:00.024Z,88.67
2023-03-01T04:14:02.584Z,86.27
2023-03-01T04:19:07.443Z,90.90
2023-03-01T04:24:10.658Z,90.73
2023-03-01T04:29:13.470Z,90.20
2023-03-01T04:34:16.018Z,88.87
2023-03-01T04:39:18.572Z,86.37
2023-03-01T04:44:21.091Z,80.33
2023-03-01T04:49:23.686Z,85.43
2023-03-01T04:54:26.178Z,85.90
2023-03-01T04:59:28.980Z,79.53
2023-03-01T05:04:32.137Z,74.07
2023-03-01T05:09:34.844Z,84.63
2023-03-01T05:14:37.405Z,87.20
2023-03-01T05:19:39.917Z,85.03
2023-03-01T05:24:42.562Z,82.20
2023-03-01T05:29:47.357Z,84.93
2023-03-01T05:34:49.794Z,86.63
2023-03-01T05:39:53.177Z,85.20
2023-03-01T05:44:55.758Z,80.33
2023-03-01T05:49:58.369Z,86.67
2023-03-01T05:55:00.939Z,84.53
2023-03-01T06:00:04.373Z,81.67
2023-03-01T06:05:15.166Z,83.50
2023-03-01T06:10:19.473Z,87.87
2023-03-01T06:15:22.748Z,79.80
2023-03-01T06:20:27.759Z,92.93
2023-03-01T06:25:30.470Z,86.20
2023-03-01T06:30:33.124Z,73.83
2023-03-01T06:35:36.126Z,64.30
2023-03-01T06:40:38.751Z,64.87
2023-03-01T06:45:41.263Z,66.07
2023-03-01T06:50:43.818Z,60.70
2023-03-01T06:55:46.417Z,80.50
2023-03-01T07:00:48.916Z,97.77
2023-03-01T07:05:53.470Z,89.73
2023-03-01T07:10:59.999Z,65.23
2023-03-01T07:16:02.656Z,86.27
2023-03-01T07:21:09.865Z,90.33
2023-03-01T07:26:12.341Z,92.50
2023-03-01T07:31:15.302Z,70.37
2023-03-01T07:36:17.850Z,76.70
2023-03-01T07:41:20.338Z,80.93
2023-03-01T07:46:23.184Z,79.13
2023-03-01T07:51:25.829Z,78.17
2023-03-01T07:56:28.378Z,80.00
2023-03-01T08:01:30.896Z,74.80
2023-03-01T08:06:35.567Z,67.30
2023-03-01T08:11:38.675Z,64.57
2023-03-01T08:16:41.376Z,57.90
2023-03-01T08:21:44.042Z,48.03
2023-03-01T08:26:46.685Z,45.60
2023-03-01T08:31:49.846Z,45.73
2023-03-01T08:36:53.287Z,51.60
2023-03-01T08:41:55.813Z,46.53
2023-03-01T08:46:58.662Z,47.13
2023-03-01T08:52:03.427Z,28.00
2023-03-01T08:57:06.210Z,40.97
2023-03-01T09:02:17.812Z,38.07
2023-03-01T09:07:20.449Z,37.47
2023-03-01T09:12:23.353Z,43.70
2023-03-01T09:17:25.793Z,20.40
2023-03-01T09:22:28.339Z,31.03
2023-03-01T09:27:30.876Z,42.70
2023-03-01T09:32:33.574Z,33.17
2023-03-01T09:37:38.572Z,40.17
2023-03-01T09:42:53.927Z,30.57
2023-03-01T09:47:57.232Z,28.07
2023-03-01T09:53:16.869Z,31.13
2023-03-01T09:58:42.671Z,28.70
2023-03-01T10:04:01.454Z,27.80
2023-03-01T10:09:18.096Z,9.90
2023-03-01T10:14:41.752Z,10.03
2023-03-01T10:19:46.773Z,8.67
2023-03-01T10:24:51.062Z,10.13
2023-03-01T10:29:59.885Z,31.30
2023-03-01T10:35:24.623Z,38.57
2023-03-01T10:40:27.221Z,11.83
2023-03-01T10:45:39.804Z,33.20
2023-03-01T10:50:48.053Z,14.53
2023-03-01T10:55:59.490Z,28.23
2023-03-01T11:01:05.309Z,25.97
2023-03-01T11:06:13.822Z,27.63
2023-03-01T11:11:32.559Z,25.43
2023-03-01T11:16:38.679Z,9.43
2023-03-01T11:21:48.882Z,21.40
2023-03-01T11:26:56.011Z,24.43
2023-03-01T11:32:02.262Z,15.47
2023-03-01T11:37:18.166Z,16.03
2023-03-01T11:42:29.111Z,9.37
2023-03-01T11:47:49.497Z,7.40
2023-03-01T11:53:19.286Z,26.00
2023-03-01T11:58:27.409Z,21.10
2023-03-01T12:04:08.324Z,27.10
2023-03-01T12:09:19.769Z,23.80
2023-03-01T12:14:33.991Z,11.77
2023-03-01T12:19:58.729Z,12.53
2023-03-01T12:25:15.717Z,16.80
2023-03-01T12:30:49.991Z,13.03
2023-03-01T12:36:27.633Z,7.77
2023-03-01T12:42:00.974Z,6.70
2023-03-01T12:47:26.250Z,16.50
2023-03-01T12:52:48.589Z,7.40
2023-03-01T12:58:26.245Z,6.70
2023-03-01T13:04:04.713Z,9.23
2023-03-01T13:09:22.349Z,16.87
2023-03-01T13:14:24.711Z,7.23
2023-03-01T13:19:37.215Z,17.33
2023-03-01T13:24:43.799Z,20.83
2023-03-01T13:29:54.876Z,17.87
2023-03-01T13:35:20.019Z,4.70
2023-03-01T13:40:23.619Z,5.57
2023-03-01T13:45:40.099Z,13.47
2023-03-01T13:51:15.414Z,7.60
2023-03-01T13:56:22.717Z,14.67
2023-03-01T14:01:30.340Z,15.07
2023-03-01T14:06:36.810Z,10.87
2023-03-01T14:11:54.225Z,11.47
2023-03-01T14:17:18.269Z,15.97
2023-03-01T14:22:41.767Z,19.30
2023-03-01T14:27:45.218Z,8.80
2023-03-01T14:33:02.759Z,18.40
2023-03-01T14:38:05.278Z,14.27
2023-03-01T14:43:21.138Z,17.10
2023-03-01T14:48:24.662Z,14.10
2023-03-01T14:53:32.661Z,15.97
2023-03-01T14:58:39.368Z,13.13
2023-03-01T15:03:45.061Z,17.43
2023-03-01T15:08:51.460Z,10.83
2023-03-01T15:13:54.802Z,15.60
2023-03-01T15:19:08.090Z,16.40
2023-03-01T15:24:20.607Z,12.20
2023-03-01T15:29:30.755Z,14.90
2023-03-01T15:34:38.391Z,10.97
2023-03-01T15:39:46.768Z,13.20
2023-03-01T15:44:49.287Z,12.27
2023-03-01T15:49:55.702Z,11.73
2023-03-01T15:55:02.321Z,12.77
2023-03-01T16:00:12.394Z,13.53
2023-03-01T16:05:20.629Z,12.17
2023-03-01T16:10:23.358Z,13.30
2023-03-01T16:15:33.245Z,9.60
2023-03-01T16:20:35.916Z,9.57
2023-03-01T16:25:38.818Z,9.90
2023-03-01T16:30:41.593Z,10.80
2023-03-01T16:35:45.094Z,11.03
2023-03-01T16:40:52.982Z,11.37
2023-03-01T16:45:55.636Z,16.67
2023-03-01T16:51:02.499Z,20.20
2023-03-01T16:56:08.636Z,19.40
2023-03-01T17:01:12.514Z,20.37
2023-03-01T17:06:19.045Z,19.60
2023-03-01T17:11:21.799Z,19.50
2023-03-01T17:16:24.377Z,16.57
2023-03-01T17:21:26.930Z,15.73
2023-03-01T17:26:29.515Z,13.87
2023-03-01T17:31:33.877Z,11.07
2023-03-01T17:36:44.745Z,11.47
2023-03-01T17:41:47.779Z,14.13
2023-03-01T17:46:50.288Z,20.23
2023-03-01T17:51:52.851Z,19.43
2023-03-01T17:56:56.470Z,21.60
2023-03-01T18:02:01.483Z,21.63
2023-03-01T18:07:04.094Z,15.50
2023-03-01T18:12:07.117Z,17.10
2023-03-01T18:17:12.092Z,22.30
2023-03-01T18:22:15.617Z,31.67
2023-03-01T18:27:18.634Z,31.87
2023-03-01T18:32:22.095Z,14.50
2023-03-01T18:37:25.070Z,17.03
2023-03-01T18:42:27.557Z,21.90
2023-03-01T18:47:29.981Z,38.07
2023-03-01T18:52:32.852Z,50.57
2023-03-01T18:57:35.262Z,46.23
2023-03-01T19:02:37.818Z,47.03
2023-03-01T19:07:40.451Z,45.87
2023-03-01T19:12:43.046Z,37.00
2023-03-01T19:17:45.857Z,35.70
2023-03-01T19:22:48.389Z,37.57
2023-03-01T19:27:50.944Z,42.40
2023-03-01T19:32:54.173Z,36.40
2023-03-01T19:37:56.793Z,38.33
2023-03-01T19:42:59.383Z,39.60
2023-03-01T19:48:01.993Z,43.43
2023-03-01T19:53:05.216Z,35.57
2023-03-01T19:58:10.442Z,38.67
2023-03-01T20:03:13.410Z,34.33
2023-03-01T20:08:15.969Z,39.30
2023-03-01T20:13:21.250Z,40.20
2023-03-01T20:18:24.494Z,39.00
2023-03-01T20:23:27.586Z,39.13
2023-03-01T20:28:30.357Z,31.17
2023-03-01T20:33:33.003Z,30.03
2023-03-01T20:38:38.475Z,37.80
2023-03-01T20:43:42.721Z,36.40
2023-03-01T20:48:45.329Z,32.87
2023-03-01T20:53:47.914Z,30.80
2023-03-01T20:58:50.500Z,44.00
2023-03-01T21:03:53.270Z,48.47
2023-03-01T21:08:56.810Z,50.07
2023-03-01T21:13:59.471Z,43.80
2023-03-01T21:19:04.608Z,53.23
2023-03-01T21:24:10.317Z,52.03
2023-03-01T21:29:13.002Z,51.17
2023-03-01T21:34:15.529Z,52.70
2023-03-01T21:39:18.139Z,53.80
2023-03-01T21:44:20.723Z,47.83
2023-03-01T21:49:23.611Z,42.97
2023-03-01T21:54:26.348Z,41.50
2023-03-01T21:59:29.109Z,48.37
2023-03-01T22:04:31.737Z,42.50
2023-03-01T22:09:36.319Z,50.47
2023-03-01T22:14:38.778Z,53.57
2023-03-01T22:19:41.310Z,56.80
2023-03-01T22:24:43.973Z,61.87
2023-03-01T22:29:46.511Z,62.00
2023-03-01T22:34:49.033Z,65.70
2023-03-01T22:39:52.121Z,53.17
2023-03-01T22:44:54.681Z,68.73
2023-03-01T22:49:57.146Z,65.03
2023-03-01T22:54:59.948Z,57.87
2023-03-01T23:00:06.328Z,64.07
2023-03-01T23:05:09.955Z,60.83
2023-03-01T23:10:13.406Z,59.17
2023-03-01T23:15:15.926Z,62.33
2023-03-01T23:20:18.498Z,68.67
2023-03-01T23:25:21.074Z,62.73
2023-03-01T23:30:23.624Z,64.43
2023-03-01T23:35:29.383Z,66.30
2023-03-01T23:40:32.009Z,67.13
2023-03-01T23:45:42.947Z,73.13
2023-03-01T23:50:45.545Z,70.17
2023-03-01T23:55:53.438Z,75.03
